Accueil
METAR-TAF:

METAR-TAF

Aéroports :

Aéroport international de Khartoum

Khartoum, Soudan

latitude: 15-36N, longitude: 032-33E, altitude: 382 m

Observation

Le bulletin a été fait il y a 27 minutes, à 15:00 UTC
Vent 8 kt de ouest
Température 34°C
Humidité 34%
Pression 1010 hPa
Visibilité 10 km ou plus
pas de nuages en-dessous de 1500 mètres et pas de cumulonimbus.

METAR: HSSS 031500Z 27008KT CAVOK 34/16 Q1010 NOSIG

Heure: 17:27 (15:27 UTC)

Prévision

Le bulletin a été fait il y a 4 heures et 27 minutes, à 11:00 UTC
Prévision valable du 03 à 12 UTC au 04 à 18 UTC
Vent 10 kt de sud-ouest avec des rafales jusqu'à 20 kt
Visibilité 10 km ou plus
Quelques nuages à une hauteur de 4000 ft
Nuages épars à une hauteur de 14000 ft

TAF: HSSS 031100Z 0312/0418 22010G20KT 9999 FEW040 SCT140

Observations et prévisions météorologiques de plus de 4000 aéroports (messages METAR et TAF).

Les stations disponibles sont représentées par des disques jaunes et rouges sur la carte.

Passer la souris dessus pour voir le nom de la station.

Cliquer dessus pour voir les observations et prévisions météorologiques.

Pour changer de carte: cliquez sur les boutons verts avec une croix noire pour zoomer, sur le bouton vert avec un tiret pour effectuer un zoom arrière, ou sur les flèches vertes pour les cartes adjacentes.


METAR-TAF: